sensor_id;sensor_type;location;lat;lon;timestamp;P1;durP1;ratioP1;P2;durP2;ratioP2
49237;SDS011;35069;47.906;1.892;2023-11-18T00:00:18;16.20;;;5.55;;
49237;SDS011;35069;47.906;1.892;2023-11-18T00:02:46;10.38;;;5.22;;
49237;SDS011;35069;47.906;1.892;2023-11-18T00:05:12;10.40;;;4.90;;
49237;SDS011;35069;47.906;1.892;2023-11-18T00:07:39;7.07;;;4.45;;
49237;SDS011;35069;47.906;1.892;2023-11-18T00:10:04;14.43;;;4.75;;
49237;SDS011;35069;47.906;1.892;2023-11-18T00:12:31;11.82;;;3.95;;
49237;SDS011;35069;47.906;1.892;2023-11-18T00:15:00;16.95;;;6.00;;
49237;SDS011;35069;47.906;1.892;2023-11-18T00:17:30;7.90;;;4.55;;
49237;SDS011;35069;47.906;1.892;2023-11-18T00:19:56;10.88;;;4.28;;
49237;SDS011;35069;47.906;1.892;2023-11-18T00:22:22;10.25;;;4.63;;
49237;SDS011;35069;47.906;1.892;2023-11-18T00:24:48;9.30;;;4.50;;
49237;SDS011;35069;47.906;1.892;2023-11-18T00:27:13;9.70;;;4.30;;
49237;SDS011;35069;47.906;1.892;2023-11-18T00:29:40;11.65;;;3.92;;
49237;SDS011;35069;47.906;1.892;2023-11-18T00:32:06;7.15;;;4.10;;
49237;SDS011;35069;47.906;1.892;2023-11-18T00:34:32;8.30;;;3.13;;
49237;SDS011;35069;47.906;1.892;2023-11-18T00:36:58;14.52;;;4.53;;
49237;SDS011;35069;47.906;1.892;2023-11-18T00:39:24;9.80;;;4.10;;
49237;SDS011;35069;47.906;1.892;2023-11-18T00:41:49;15.07;;;4.90;;
49237;SDS011;35069;47.906;1.892;2023-11-18T00:44:15;10.70;;;3.88;;
49237;SDS011;35069;47.906;1.892;2023-11-18T00:46:41;12.40;;;3.85;;
49237;SDS011;35069;47.906;1.892;2023-11-18T00:49:06;13.38;;;4.38;;
49237;SDS011;35069;47.906;1.892;2023-11-18T00:51:32;7.38;;;3.70;;
49237;SDS011;35069;47.906;1.892;2023-11-18T00:53:57;11.85;;;6.05;;
49237;SDS011;35069;47.906;1.892;2023-11-18T00:56:25;8.60;;;3.90;;
49237;SDS011;35069;47.906;1.892;2023-11-18T00:58:53;11.13;;;4.20;;
49237;SDS011;35069;47.906;1.892;2023-11-18T01:01:19;13.07;;;4.75;;
49237;SDS011;35069;47.906;1.892;2023-11-18T01:03:45;9.63;;;4.30;;
49237;SDS011;35069;47.906;1.892;2023-11-18T01:06:11;12.10;;;4.43;;
49237;SDS011;35069;47.906;1.892;2023-11-18T01:08:37;10.82;;;3.53;;
49237;SDS011;35069;47.906;1.892;2023-11-18T01:11:03;13.95;;;4.55;;
49237;SDS011;35069;47.906;1.892;2023-11-18T01:13:32;9.00;;;3.72;;
49237;SDS011;35069;47.906;1.892;2023-11-18T01:15:57;13.55;;;4.05;;
49237;SDS011;35069;47.906;1.892;2023-11-18T01:18:23;9.10;;;3.70;;
49237;SDS011;35069;47.906;1.892;2023-11-18T01:20:48;9.40;;;4.15;;
49237;SDS011;35069;47.906;1.892;2023-11-18T01:23:14;11.27;;;3.38;;
49237;SDS011;35069;47.906;1.892;2023-11-18T01:25:40;11.40;;;4.38;;
49237;SDS011;35069;47.906;1.892;2023-11-18T01:28:06;7.32;;;3.40;;
49237;SDS011;35069;47.906;1.892;2023-11-18T01:30:32;12.77;;;3.72;;
49237;SDS011;35069;47.906;1.892;2023-11-18T01:32:57;9.43;;;3.85;;
49237;SDS011;35069;47.906;1.892;2023-11-18T01:35:26;8.80;;;3.90;;
49237;SDS011;35069;47.906;1.892;2023-11-18T01:37:52;15.82;;;3.95;;
49237;SDS011;35069;47.906;1.892;2023-11-18T01:40:19;7.60;;;3.15;;
49237;SDS011;35069;47.906;1.892;2023-11-18T01:42:45;9.88;;;3.63;;
49237;SDS011;35069;47.906;1.892;2023-11-18T01:45:11;7.57;;;3.65;;
49237;SDS011;35069;47.906;1.892;2023-11-18T01:47:39;7.68;;;3.97;;
49237;SDS011;35069;47.906;1.892;2023-11-18T01:50:06;8.27;;;3.72;;
49237;SDS011;35069;47.906;1.892;2023-11-18T01:52:35;16.00;;;4.18;;
49237;SDS011;35069;47.906;1.892;2023-11-18T01:55:02;10.68;;;3.22;;
49237;SDS011;35069;47.906;1.892;2023-11-18T01:57:31;9.20;;;2.70;;
49237;SDS011;35069;47.906;1.892;2023-11-18T01:59:58;7.85;;;3.30;;
49237;SDS011;35069;47.906;1.892;2023-11-18T02:02:25;14.13;;;3.67;;
49237;SDS011;35069;47.906;1.892;2023-11-18T02:04:50;7.13;;;3.30;;
49237;SDS011;35069;47.906;1.892;2023-11-18T02:07:16;10.82;;;3.13;;
49237;SDS011;35069;47.906;1.892;2023-11-18T02:09:43;5.38;;;2.45;;
49237;SDS011;35069;47.906;1.892;2023-11-18T02:14:39;7.20;;;2.92;;
49237;SDS011;35069;47.906;1.892;2023-11-18T02:17:05;10.57;;;4.60;;
49237;SDS011;35069;47.906;1.892;2023-11-18T02:19:34;12.85;;;4.35;;
49237;SDS011;35069;47.906;1.892;2023-11-18T02:22:00;5.43;;;2.85;;
49237;SDS011;35069;47.906;1.892;2023-11-18T02:24:27;9.65;;;2.72;;
49237;SDS011;35069;47.906;1.892;2023-11-18T02:26:56;9.43;;;2.83;;
49237;SDS011;35069;47.906;1.892;2023-11-18T02:29:23;13.32;;;3.03;;
49237;SDS011;35069;47.906;1.892;2023-11-18T02:31:51;13.07;;;3.20;;
49237;SDS011;35069;47.906;1.892;2023-11-18T02:34:22;7.70;;;3.67;;
49237;SDS011;35069;47.906;1.892;2023-11-18T02:36:53;9.45;;;3.45;;
49237;SDS011;35069;47.906;1.892;2023-11-18T02:39:29;9.40;;;3.08;;
49237;SDS011;35069;47.906;1.892;2023-11-18T02:41:59;14.85;;;2.97;;
49237;SDS011;35069;47.906;1.892;2023-11-18T02:44:27;9.30;;;2.40;;
49237;SDS011;35069;47.906;1.892;2023-11-18T02:46:57;13.05;;;2.95;;
49237;SDS011;35069;47.906;1.892;2023-11-18T02:49:23;8.82;;;2.88;;
49237;SDS011;35069;47.906;1.892;2023-11-18T02:51:49;12.23;;;4.78;;
49237;SDS011;35069;47.906;1.892;2023-11-18T02:54:15;7.63;;;3.28;;
49237;SDS011;35069;47.906;1.892;2023-11-18T02:56:41;7.82;;;2.88;;
49237;SDS011;35069;47.906;1.892;2023-11-18T02:59:07;6.80;;;2.30;;
49237;SDS011;35069;47.906;1.892;2023-11-18T03:01:35;4.53;;;2.42;;
49237;SDS011;35069;47.906;1.892;2023-11-18T03:04:02;9.50;;;2.97;;
49237;SDS011;35069;47.906;1.892;2023-11-18T03:06:30;7.70;;;2.53;;
49237;SDS011;35069;47.906;1.892;2023-11-18T03:08:57;5.70;;;2.10;;
49237;SDS011;35069;47.906;1.892;2023-11-18T03:11:23;7.93;;;2.50;;
49237;SDS011;35069;47.906;1.892;2023-11-18T03:13:48;9.80;;;3.20;;
49237;SDS011;35069;47.906;1.892;2023-11-18T03:16:14;6.38;;;2.72;;
49237;SDS011;35069;47.906;1.892;2023-11-18T03:18:42;8.25;;;4.03;;
49237;SDS011;35069;47.906;1.892;2023-11-18T03:21:11;13.57;;;3.13;;
49237;SDS011;35069;47.906;1.892;2023-11-18T03:23:38;5.90;;;2.45;;
49237;SDS011;35069;47.906;1.892;2023-11-18T03:26:05;8.40;;;2.63;;
49237;SDS011;35069;47.906;1.892;2023-11-18T03:28:31;6.53;;;2.20;;
49237;SDS011;35069;47.906;1.892;2023-11-18T03:30:57;6.35;;;2.40;;
49237;SDS011;35069;47.906;1.892;2023-11-18T03:33:23;12.27;;;2.28;;
49237;SDS011;35069;47.906;1.892;2023-11-18T03:35:48;7.95;;;2.20;;
49237;SDS011;35069;47.906;1.892;2023-11-18T03:38:14;6.38;;;2.50;;
49237;SDS011;35069;47.906;1.892;2023-11-18T03:40:42;6.65;;;2.40;;
49237;SDS011;35069;47.906;1.892;2023-11-18T03:43:10;7.80;;;2.33;;
49237;SDS011;35069;47.906;1.892;2023-11-18T03:45:39;4.60;;;2.60;;
49237;SDS011;35069;47.906;1.892;2023-11-18T03:48:06;7.38;;;2.40;;
49237;SDS011;35069;47.906;1.892;2023-11-18T03:50:32;8.52;;;2.53;;
49237;SDS011;35069;47.906;1.892;2023-11-18T03:52:58;8.55;;;2.38;;
49237;SDS011;35069;47.906;1.892;2023-11-18T03:55:24;7.50;;;2.25;;
49237;SDS011;35069;47.906;1.892;2023-11-18T03:57:51;7.70;;;2.30;;
49237;SDS011;35069;47.906;1.892;2023-11-18T04:00:17;3.75;;;2.08;;
49237;SDS011;35069;47.906;1.892;2023-11-18T04:02:44;9.15;;;2.30;;
49237;SDS011;35069;47.906;1.892;2023-11-18T04:05:13;2.20;;;1.88;;
49237;SDS011;35069;47.906;1.892;2023-11-18T04:07:39;5.80;;;2.30;;
49237;SDS011;35069;47.906;1.892;2023-11-18T04:10:08;10.35;;;2.25;;
49237;SDS011;35069;47.906;1.892;2023-11-18T04:12:35;4.95;;;2.65;;
49237;SDS011;35069;47.906;1.892;2023-11-18T04:15:01;8.40;;;2.35;;
49237;SDS011;35069;47.906;1.892;2023-11-18T04:17:29;6.47;;;2.60;;
49237;SDS011;35069;47.906;1.892;2023-11-18T04:19:55;3.70;;;2.00;;
49237;SDS011;35069;47.906;1.892;2023-11-18T04:22:21;10.18;;;2.80;;
49237;SDS011;35069;47.906;1.892;2023-11-18T04:24:47;6.57;;;2.17;;
49237;SDS011;35069;47.906;1.892;2023-11-18T04:27:13;7.40;;;2.78;;
49237;SDS011;35069;47.906;1.892;2023-11-18T04:29:38;4.00;;;1.50;;
49237;SDS011;35069;47.906;1.892;2023-11-18T04:32:05;7.55;;;2.65;;
49237;SDS011;35069;47.906;1.892;2023-11-18T04:34:35;7.60;;;2.17;;
49237;SDS011;35069;47.906;1.892;2023-11-18T04:37:01;4.97;;;1.90;;
49237;SDS011;35069;47.906;1.892;2023-11-18T04:39:27;7.63;;;2.53;;
49237;SDS011;35069;47.906;1.892;2023-11-18T04:41:55;3.95;;;2.70;;
49237;SDS011;35069;47.906;1.892;2023-11-18T04:44:21;9.32;;;2.72;;
49237;SDS011;35069;47.906;1.892;2023-11-18T04:46:47;5.05;;;2.35;;
49237;SDS011;35069;47.906;1.892;2023-11-18T04:49:12;6.40;;;2.38;;
49237;SDS011;35069;47.906;1.892;2023-11-18T04:51:38;11.10;;;2.63;;
49237;SDS011;35069;47.906;1.892;2023-11-18T04:54:04;6.93;;;2.17;;
49237;SDS011;35069;47.906;1.892;2023-11-18T04:56:32;6.68;;;2.97;;
49237;SDS011;35069;47.906;1.892;2023-11-18T04:59:00;6.85;;;2.20;;
49237;SDS011;35069;47.906;1.892;2023-11-18T05:01:26;4.03;;;2.10;;
49237;SDS011;35069;47.906;1.892;2023-11-18T05:03:51;10.23;;;2.75;;
49237;SDS011;35069;47.906;1.892;2023-11-18T05:06:17;6.43;;;2.60;;
49237;SDS011;35069;47.906;1.892;2023-11-18T05:08:45;7.40;;;3.03;;
49237;SDS011;35069;47.906;1.892;2023-11-18T05:11:10;7.45;;;3.00;;
49237;SDS011;35069;47.906;1.892;2023-11-18T05:13:37;5.75;;;2.20;;
49237;SDS011;35069;47.906;1.892;2023-11-18T05:16:05;5.13;;;2.08;;
49237;SDS011;35069;47.906;1.892;2023-11-18T05:18:31;8.48;;;2.30;;
49237;SDS011;35069;47.906;1.892;2023-11-18T05:21:00;4.32;;;2.20;;
49237;SDS011;35069;47.906;1.892;2023-11-18T05:23:27;11.18;;;2.63;;
49237;SDS011;35069;47.906;1.892;2023-11-18T05:25:54;3.70;;;2.28;;
49237;SDS011;35069;47.906;1.892;2023-11-18T05:28:21;8.68;;;1.95;;
49237;SDS011;35069;47.906;1.892;2023-11-18T05:30:47;5.72;;;1.92;;
49237;SDS011;35069;47.906;1.892;2023-11-18T05:33:12;4.32;;;2.17;;
49237;SDS011;35069;47.906;1.892;2023-11-18T05:35:42;5.93;;;2.38;;
49237;SDS011;35069;47.906;1.892;2023-11-18T05:38:14;2.67;;;2.00;;
49237;SDS011;35069;47.906;1.892;2023-11-18T05:40:43;5.78;;;2.20;;
49237;SDS011;35069;47.906;1.892;2023-11-18T05:43:20;5.35;;;1.85;;
49237;SDS011;35069;47.906;1.892;2023-11-18T05:45:51;2.70;;;1.85;;
49237;SDS011;35069;47.906;1.892;2023-11-18T05:48:36;2.60;;;2.17;;
49237;SDS011;35069;47.906;1.892;2023-11-18T05:51:01;6.72;;;2.35;;
49237;SDS011;35069;47.906;1.892;2023-11-18T05:53:27;4.90;;;2.47;;
49237;SDS011;35069;47.906;1.892;2023-11-18T05:55:54;7.05;;;1.92;;
49237;SDS011;35069;47.906;1.892;2023-11-18T05:58:19;6.85;;;2.55;;
49237;SDS011;35069;47.906;1.892;2023-11-18T06:00:46;6.18;;;1.60;;
49237;SDS011;35069;47.906;1.892;2023-11-18T06:03:12;3.45;;;1.88;;
49237;SDS011;35069;47.906;1.892;2023-11-18T06:05:37;5.30;;;1.52;;
49237;SDS011;35069;47.906;1.892;2023-11-18T06:08:03;10.10;;;3.50;;
49237;SDS011;35069;47.906;1.892;2023-11-18T06:10:29;6.03;;;1.60;;
49237;SDS011;35069;47.906;1.892;2023-11-18T06:12:57;1.70;;;1.55;;
49237;SDS011;35069;47.906;1.892;2023-11-18T06:15:23;3.63;;;1.70;;
49237;SDS011;35069;47.906;1.892;2023-11-18T06:17:49;2.85;;;1.77;;
49237;SDS011;35069;47.906;1.892;2023-11-18T06:20:14;10.65;;;2.15;;
49237;SDS011;35069;47.906;1.892;2023-11-18T06:22:42;5.85;;;2.30;;
49237;SDS011;35069;47.906;1.892;2023-11-18T06:25:07;5.40;;;2.38;;
49237;SDS011;35069;47.906;1.892;2023-11-18T06:27:33;5.10;;;2.40;;
49237;SDS011;35069;47.906;1.892;2023-11-18T06:29:59;4.15;;;1.50;;
49237;SDS011;35069;47.906;1.892;2023-11-18T06:32:25;2.78;;;1.50;;
49237;SDS011;35069;47.906;1.892;2023-11-18T06:34:51;2.97;;;1.90;;
49237;SDS011;35069;47.906;1.892;2023-11-18T06:37:18;5.57;;;1.92;;
49237;SDS011;35069;47.906;1.892;2023-11-18T06:39:44;3.80;;;1.92;;
49237;SDS011;35069;47.906;1.892;2023-11-18T06:42:12;4.15;;;1.90;;
49237;SDS011;35069;47.906;1.892;2023-11-18T06:44:39;5.35;;;2.60;;
49237;SDS011;35069;47.906;1.892;2023-11-18T06:47:04;2.88;;;1.65;;
49237;SDS011;35069;47.906;1.892;2023-11-18T06:49:31;4.13;;;2.15;;
49237;SDS011;35069;47.906;1.892;2023-11-18T06:51:59;6.57;;;2.10;;
49237;SDS011;35069;47.906;1.892;2023-11-18T06:54:29;4.97;;;2.53;;
49237;SDS011;35069;47.906;1.892;2023-11-18T06:56:55;7.53;;;2.55;;
49237;SDS011;35069;47.906;1.892;2023-11-18T06:59:21;2.47;;;2.28;;
49237;SDS011;35069;47.906;1.892;2023-11-18T07:01:47;3.58;;;2.28;;
49237;SDS011;35069;47.906;1.892;2023-11-18T07:04:12;3.60;;;1.75;;
49237;SDS011;35069;47.906;1.892;2023-11-18T07:06:39;2.33;;;1.98;;
49237;SDS011;35069;47.906;1.892;2023-11-18T07:09:09;4.75;;;2.10;;
49237;SDS011;35069;47.906;1.892;2023-11-18T07:11:46;3.72;;;1.83;;
49237;SDS011;35069;47.906;1.892;2023-11-18T07:14:12;3.95;;;1.83;;
49237;SDS011;35069;47.906;1.892;2023-11-18T07:41:36;4.28;;;2.70;;
49237;SDS011;35069;47.906;1.892;2023-11-18T07:46:44;5.28;;;1.38;;
49237;SDS011;35069;47.906;1.892;2023-11-18T08:06:29;4.57;;;1.60;;
49237;SDS011;35069;47.906;1.892;2023-11-18T08:08:57;2.15;;;1.67;;
49237;SDS011;35069;47.906;1.892;2023-11-18T08:11:23;11.10;;;1.90;;
49237;SDS011;35069;47.906;1.892;2023-11-18T08:13:50;3.08;;;1.67;;
49237;SDS011;35069;47.906;1.892;2023-11-18T08:16:16;6.00;;;1.85;;
49237;SDS011;35069;47.906;1.892;2023-11-18T08:18:43;1.60;;;1.48;;
49237;SDS011;35069;47.906;1.892;2023-11-18T08:21:10;2.85;;;1.40;;
49237;SDS011;35069;47.906;1.892;2023-11-18T08:23:37;3.63;;;2.25;;
49237;SDS011;35069;47.906;1.892;2023-11-18T08:26:02;3.97;;;1.48;;
49237;SDS011;35069;47.906;1.892;2023-11-18T08:28:30;5.20;;;1.50;;
49237;SDS011;35069;47.906;1.892;2023-11-18T08:30:56;3.47;;;1.40;;
49237;SDS011;35069;47.906;1.892;2023-11-18T08:33:22;3.78;;;1.50;;
49237;SDS011;35069;47.906;1.892;2023-11-18T08:35:50;3.28;;;1.55;;
49237;SDS011;35069;47.906;1.892;2023-11-18T08:38:19;3.45;;;1.77;;
49237;SDS011;35069;47.906;1.892;2023-11-18T08:40:45;3.83;;;1.52;;
49237;SDS011;35069;47.906;1.892;2023-11-18T08:43:13;2.75;;;1.63;;
49237;SDS011;35069;47.906;1.892;2023-11-18T08:45:41;1.35;;;1.25;;
49237;SDS011;35069;47.906;1.892;2023-11-18T08:48:06;1.55;;;1.45;;
49237;SDS011;35069;47.906;1.892;2023-11-18T08:50:33;3.13;;;1.55;;
49237;SDS011;35069;47.906;1.892;2023-11-18T08:52:59;2.53;;;1.67;;
49237;SDS011;35069;47.906;1.892;2023-11-18T08:55:29;5.68;;;1.52;;
49237;SDS011;35069;47.906;1.892;2023-11-18T08:58:06;4.60;;;2.40;;
49237;SDS011;35069;47.906;1.892;2023-11-18T09:00:48;3.83;;;1.55;;
49237;SDS011;35069;47.906;1.892;2023-11-18T09:03:31;7.30;;;1.80;;
49237;SDS011;35069;47.906;1.892;2023-11-18T09:06:00;2.75;;;2.55;;
49237;SDS011;35069;47.906;1.892;2023-11-18T09:08:34;1.60;;;1.50;;
49237;SDS011;35069;47.906;1.892;2023-11-18T09:11:07;3.40;;;1.67;;
49237;SDS011;35069;47.906;1.892;2023-11-18T09:13:39;3.50;;;1.67;;
49237;SDS011;35069;47.906;1.892;2023-11-18T09:16:07;3.92;;;1.38;;
49237;SDS011;35069;47.906;1.892;2023-11-18T09:18:34;23.25;;;4.65;;
49237;SDS011;35069;47.906;1.892;2023-11-18T09:21:03;4.07;;;1.27;;
49237;SDS011;35069;47.906;1.892;2023-11-18T09:23:31;5.05;;;1.60;;
49237;SDS011;35069;47.906;1.892;2023-11-18T10:28:36;2.38;;;1.65;;
49237;SDS011;35069;47.906;1.892;2023-11-18T10:31:06;3.25;;;1.40;;
49237;SDS011;35069;47.906;1.892;2023-11-18T10:33:36;2.35;;;1.98;;
49237;SDS011;35069;47.906;1.892;2023-11-18T10:36:03;14.30;;;2.65;;
49237;SDS011;35069;47.906;1.892;2023-11-18T10:38:38;3.60;;;1.48;;
49237;SDS011;35069;47.906;1.892;2023-11-18T10:41:08;2.78;;;1.83;;
49237;SDS011;35069;47.906;1.892;2023-11-18T10:43:34;2.13;;;1.50;;
49237;SDS011;35069;47.906;1.892;2023-11-18T10:46:07;1.80;;;1.30;;
49237;SDS011;35069;47.906;1.892;2023-11-18T10:48:44;4.07;;;1.75;;
49237;SDS011;35069;47.906;1.892;2023-11-18T10:51:15;2.55;;;1.52;;
49237;SDS011;35069;47.906;1.892;2023-11-18T10:53:44;1.67;;;1.55;;
49237;SDS011;35069;47.906;1.892;2023-11-18T10:56:21;4.57;;;1.42;;
49237;SDS011;35069;47.906;1.892;2023-11-18T10:58:57;3.38;;;1.27;;
49237;SDS011;35069;47.906;1.892;2023-11-18T11:01:36;3.58;;;1.40;;
49237;SDS011;35069;47.906;1.892;2023-11-18T11:04:07;2.22;;;1.60;;
49237;SDS011;35069;47.906;1.892;2023-11-18T11:06:43;1.65;;;1.55;;
49237;SDS011;35069;47.906;1.892;2023-11-18T11:09:27;1.80;;;1.35;;
49237;SDS011;35069;47.906;1.892;2023-11-18T11:11:54;2.28;;;1.30;;
49237;SDS011;35069;47.906;1.892;2023-11-18T11:14:24;1.75;;;1.10;;
49237;SDS011;35069;47.906;1.892;2023-11-18T11:17:00;2.10;;;1.90;;
49237;SDS011;35069;47.906;1.892;2023-11-18T11:25:47;1.92;;;1.50;;
49237;SDS011;35069;47.906;1.892;2023-11-18T11:28:21;3.15;;;1.50;;
49237;SDS011;35069;47.906;1.892;2023-11-18T11:30:50;2.25;;;1.30;;
49237;SDS011;35069;47.906;1.892;2023-11-18T11:33:33;4.80;;;1.45;;
49237;SDS011;35069;47.906;1.892;2023-11-18T11:36:25;4.63;;;2.30;;
49237;SDS011;35069;47.906;1.892;2023-11-18T11:39:06;2.08;;;1.40;;
49237;SDS011;35069;47.906;1.892;2023-11-18T11:41:39;3.03;;;1.50;;
49237;SDS011;35069;47.906;1.892;2023-11-18T11:44:10;7.50;;;1.50;;
49237;SDS011;35069;47.906;1.892;2023-11-18T11:46:38;4.28;;;1.40;;
49237;SDS011;35069;47.906;1.892;2023-11-18T11:49:07;1.77;;;1.30;;
49237;SDS011;35069;47.906;1.892;2023-11-18T11:54:30;3.08;;;1.42;;
49237;SDS011;35069;47.906;1.892;2023-11-18T11:57:02;1.35;;;0.93;;
49237;SDS011;35069;47.906;1.892;2023-11-18T12:02:09;2.35;;;1.15;;
49237;SDS011;35069;47.906;1.892;2023-11-18T12:04:43;4.30;;;1.02;;
49237;SDS011;35069;47.906;1.892;2023-11-18T12:07:09;2.55;;;1.30;;
49237;SDS011;35069;47.906;1.892;2023-11-18T12:09:35;3.15;;;1.40;;
49237;SDS011;35069;47.906;1.892;2023-11-18T12:12:16;1.38;;;1.20;;
49237;SDS011;35069;47.906;1.892;2023-11-18T12:14:54;1.50;;;1.35;;
49237;SDS011;35069;47.906;1.892;2023-11-18T12:23:09;3.93;;;1.30;;
49237;SDS011;35069;47.906;1.892;2023-11-18T12:25:45;1.80;;;1.40;;
49237;SDS011;35069;47.906;1.892;2023-11-18T12:28:17;1.45;;;1.30;;
49237;SDS011;35069;47.906;1.892;2023-11-18T12:30:51;1.17;;;1.00;;
49237;SDS011;35069;47.906;1.892;2023-11-18T12:33:59;2.00;;;1.25;;
49237;SDS011;35069;47.906;1.892;2023-11-18T12:42:06;2.40;;;1.25;;
49237;SDS011;35069;47.906;1.892;2023-11-18T12:47:49;1.48;;;1.10;;
49237;SDS011;35069;47.906;1.892;2023-11-18T12:50:19;2.38;;;1.05;;
49237;SDS011;35069;47.906;1.892;2023-11-18T12:52:52;2.05;;;1.05;;
49237;SDS011;35069;47.906;1.892;2023-11-18T12:55:22;2.05;;;1.20;;
49237;SDS011;35069;47.906;1.892;2023-11-18T12:57:48;3.95;;;1.00;;
49237;SDS011;35069;47.906;1.892;2023-11-18T13:00:16;2.88;;;1.30;;
49237;SDS011;35069;47.906;1.892;2023-11-18T13:02:55;1.52;;;1.20;;
49237;SDS011;35069;47.906;1.892;2023-11-18T13:05:23;2.13;;;1.33;;
49237;SDS011;35069;47.906;1.892;2023-11-18T13:07:54;1.02;;;0.90;;
49237;SDS011;35069;47.906;1.892;2023-11-18T13:10:21;5.80;;;1.33;;
49237;SDS011;35069;47.906;1.892;2023-11-18T13:12:47;3.55;;;1.15;;
49237;SDS011;35069;47.906;1.892;2023-11-18T13:15:14;3.33;;;1.45;;
49237;SDS011;35069;47.906;1.892;2023-11-18T13:17:56;3.17;;;1.27;;
49237;SDS011;35069;47.906;1.892;2023-11-18T13:20:22;3.40;;;1.10;;
49237;SDS011;35069;47.906;1.892;2023-11-18T13:22:50;8.65;;;1.58;;
49237;SDS011;35069;47.906;1.892;2023-11-18T13:25:15;5.80;;;1.33;;
49237;SDS011;35069;47.906;1.892;2023-11-18T13:27:42;1.25;;;0.98;;
49237;SDS011;35069;47.906;1.892;2023-11-18T13:30:08;7.07;;;1.60;;
49237;SDS011;35069;47.906;1.892;2023-11-18T13:32:41;5.63;;;1.25;;
49237;SDS011;35069;47.906;1.892;2023-11-18T13:35:08;2.03;;;1.02;;
49237;SDS011;35069;47.906;1.892;2023-11-18T13:37:36;2.88;;;1.10;;
49237;SDS011;35069;47.906;1.892;2023-11-18T13:40:01;1.38;;;1.13;;
49237;SDS011;35069;47.906;1.892;2023-11-18T13:42:31;9.50;;;2.42;;
49237;SDS011;35069;47.906;1.892;2023-11-18T13:45:13;7.32;;;1.02;;
49237;SDS011;35069;47.906;1.892;2023-11-18T13:47:50;2.17;;;0.90;;
49237;SDS011;35069;47.906;1.892;2023-11-18T13:50:17;4.53;;;2.28;;
49237;SDS011;35069;47.906;1.892;2023-11-18T13:52:44;3.28;;;1.30;;
49237;SDS011;35069;47.906;1.892;2023-11-18T13:55:11;2.83;;;1.30;;
49237;SDS011;35069;47.906;1.892;2023-11-18T13:57:42;3.10;;;1.20;;
49237;SDS011;35069;47.906;1.892;2023-11-18T14:00:09;5.78;;;1.27;;
49237;SDS011;35069;47.906;1.892;2023-11-18T14:02:42;1.58;;;0.90;;
49237;SDS011;35069;47.906;1.892;2023-11-18T14:05:25;3.53;;;1.27;;
49237;SDS011;35069;47.906;1.892;2023-11-18T14:07:52;1.10;;;1.00;;
49237;SDS011;35069;47.906;1.892;2023-11-18T14:10:24;1.23;;;1.10;;
49237;SDS011;35069;47.906;1.892;2023-11-18T14:13:06;2.35;;;1.60;;
49237;SDS011;35069;47.906;1.892;2023-11-18T14:15:36;2.15;;;1.23;;
49237;SDS011;35069;47.906;1.892;2023-11-18T14:18:03;2.78;;;1.58;;
49237;SDS011;35069;47.906;1.892;2023-11-18T14:20:29;10.50;;;1.73;;
49237;SDS011;35069;47.906;1.892;2023-11-18T14:22:56;5.32;;;1.45;;
49237;SDS011;35069;47.906;1.892;2023-11-18T14:25:23;1.70;;;1.10;;
49237;SDS011;35069;47.906;1.892;2023-11-18T14:27:49;2.78;;;1.27;;
49237;SDS011;35069;47.906;1.892;2023-11-18T14:30:16;1.92;;;1.13;;
49237;SDS011;35069;47.906;1.892;2023-11-18T14:32:42;3.28;;;2.15;;
49237;SDS011;35069;47.906;1.892;2023-11-18T14:35:08;2.65;;;1.77;;
49237;SDS011;35069;47.906;1.892;2023-11-18T14:37:38;2.83;;;1.50;;
49237;SDS011;35069;47.906;1.892;2023-11-18T14:40:09;3.50;;;1.67;;
49237;SDS011;35069;47.906;1.892;2023-11-18T14:42:41;6.00;;;1.63;;
49237;SDS011;35069;47.906;1.892;2023-11-18T14:45:11;1.50;;;1.08;;
49237;SDS011;35069;47.906;1.892;2023-11-18T14:47:41;3.47;;;1.48;;
49237;SDS011;35069;47.906;1.892;2023-11-18T14:50:09;1.70;;;1.25;;
49237;SDS011;35069;47.906;1.892;2023-11-18T14:52:53;2.90;;;1.20;;
49237;SDS011;35069;47.906;1.892;2023-11-18T14:55:25;1.38;;;1.27;;
49237;SDS011;35069;47.906;1.892;2023-11-18T14:57:54;1.30;;;1.08;;
49237;SDS011;35069;47.906;1.892;2023-11-18T15:00:20;9.02;;;1.48;;
49237;SDS011;35069;47.906;1.892;2023-11-18T15:02:53;5.38;;;1.23;;
49237;SDS011;35069;47.906;1.892;2023-11-18T15:05:22;5.10;;;1.75;;
49237;SDS011;35069;47.906;1.892;2023-11-18T15:07:49;2.88;;;1.27;;
49237;SDS011;35069;47.906;1.892;2023-11-18T15:10:20;3.67;;;1.40;;
49237;SDS011;35069;47.906;1.892;2023-11-18T15:12:57;4.00;;;1.38;;
49237;SDS011;35069;47.906;1.892;2023-11-18T15:15:27;3.60;;;1.10;;
49237;SDS011;35069;47.906;1.892;2023-11-18T15:18:00;3.47;;;1.38;;
49237;SDS011;35069;47.906;1.892;2023-11-18T15:23:07;3.92;;;2.10;;
49237;SDS011;35069;47.906;1.892;2023-11-18T15:25:37;4.47;;;1.80;;
49237;SDS011;35069;47.906;1.892;2023-11-18T15:28:04;10.63;;;4.40;;
49237;SDS011;35069;47.906;1.892;2023-11-18T15:36:15;8.85;;;4.75;;
49237;SDS011;35069;47.906;1.892;2023-11-18T15:38:43;8.32;;;3.00;;
49237;SDS011;35069;47.906;1.892;2023-11-18T15:41:17;3.78;;;2.42;;
49237;SDS011;35069;47.906;1.892;2023-11-18T15:44:16;3.55;;;2.20;;
49237;SDS011;35069;47.906;1.892;2023-11-18T15:46:58;2.33;;;1.92;;
49237;SDS011;35069;47.906;1.892;2023-11-18T15:49:26;7.45;;;1.92;;
49237;SDS011;35069;47.906;1.892;2023-11-18T15:52:00;2.30;;;1.70;;
49237;SDS011;35069;47.906;1.892;2023-11-18T15:54:52;2.75;;;1.83;;
49237;SDS011;35069;47.906;1.892;2023-11-18T15:57:20;5.10;;;2.17;;
49237;SDS011;35069;47.906;1.892;2023-11-18T15:59:46;4.20;;;2.10;;
49237;SDS011;35069;47.906;1.892;2023-11-18T16:02:12;4.57;;;2.05;;
49237;SDS011;35069;47.906;1.892;2023-11-18T16:04:41;7.15;;;2.30;;
49237;SDS011;35069;47.906;1.892;2023-11-18T16:07:32;8.45;;;2.05;;
49237;SDS011;35069;47.906;1.892;2023-11-18T16:10:06;4.57;;;1.85;;
49237;SDS011;35069;47.906;1.892;2023-11-18T16:13:09;4.95;;;1.90;;
49237;SDS011;35069;47.906;1.892;2023-11-18T16:15:45;4.95;;;1.80;;
49237;SDS011;35069;47.906;1.892;2023-11-18T16:18:30;3.25;;;2.30;;
49237;SDS011;35069;47.906;1.892;2023-11-18T16:20:56;2.08;;;1.88;;
49237;SDS011;35069;47.906;1.892;2023-11-18T16:23:30;4.82;;;2.10;;
49237;SDS011;35069;47.906;1.892;2023-11-18T16:26:02;6.97;;;1.60;;
49237;SDS011;35069;47.906;1.892;2023-11-18T16:28:34;4.40;;;2.20;;
49237;SDS011;35069;47.906;1.892;2023-11-18T16:31:09;5.50;;;2.90;;
49237;SDS011;35069;47.906;1.892;2023-11-18T16:33:35;6.25;;;2.53;;
49237;SDS011;35069;47.906;1.892;2023-11-18T16:36:00;7.57;;;2.50;;
49237;SDS011;35069;47.906;1.892;2023-11-18T16:38:27;5.38;;;2.13;;
49237;SDS011;35069;47.906;1.892;2023-11-18T16:40:52;2.80;;;2.20;;
49237;SDS011;35069;47.906;1.892;2023-11-18T16:43:18;3.65;;;2.05;;
49237;SDS011;35069;47.906;1.892;2023-11-18T16:45:43;3.92;;;1.98;;
49237;SDS011;35069;47.906;1.892;2023-11-18T16:48:09;8.00;;;2.05;;
49237;SDS011;35069;47.906;1.892;2023-11-18T16:50:34;5.13;;;2.85;;
49237;SDS011;35069;47.906;1.892;2023-11-18T16:53:00;3.80;;;2.50;;
49237;SDS011;35069;47.906;1.892;2023-11-18T16:55:28;4.28;;;2.90;;
49237;SDS011;35069;47.906;1.892;2023-11-18T16:57:56;5.93;;;2.97;;
49237;SDS011;35069;47.906;1.892;2023-11-18T17:00:23;9.75;;;4.00;;
49237;SDS011;35069;47.906;1.892;2023-11-18T17:02:49;3.00;;;2.67;;
49237;SDS011;35069;47.906;1.892;2023-11-18T17:05:18;6.13;;;3.42;;
49237;SDS011;35069;47.906;1.892;2023-11-18T17:07:44;5.88;;;4.07;;
49237;SDS011;35069;47.906;1.892;2023-11-18T17:10:10;11.45;;;3.50;;
49237;SDS011;35069;47.906;1.892;2023-11-18T17:12:40;7.28;;;4.57;;
49237;SDS011;35069;47.906;1.892;2023-11-18T17:15:07;5.97;;;3.85;;
49237;SDS011;35069;47.906;1.892;2023-11-18T17:17:37;6.25;;;5.30;;
49237;SDS011;35069;47.906;1.892;2023-11-18T17:20:13;5.75;;;4.32;;